Time,TemperatureF,DewpointF,PressureIn,WindDirection,WindDirectionDegrees,WindSpeedMPH,WindSpeedGustMPH,Humidity,HourlyPrecipIn,Conditions,Clouds,dailyrainin,SoftwareType,DateUTC
2013-09-30 00:00:00,43.5,35.8,30.05,ESE,107,0.0,3.0,74,0.00,CLR,CLR,0.00,WeatherDisplay:10.37,2013-09-30 06:00:00,
2013-09-30 00:05:00,43.8,35.7,30.05,ESE,118,0.0,5.0,73,0.00,CLR,CLR,0.00,WeatherDisplay:10.37,2013-09-30 06:05:00,
2013-09-30 00:10:00,44.0,35.9,30.05,ESE,122,0.0,5.0,73,0.00,CLR,CLR,0.00,WeatherDisplay:10.37,2013-09-30 06:10:00,
2013-09-30 00:15:00,43.9,35.8,30.05,ESE,115,0.0,1.0,73,0.00,CLR,CLR,0.00,WeatherDisplay:10.37,2013-09-30 06:15:00,
2013-09-30 00:20:00,43.6,35.8,30.05,ESE,113,1.0,4.0,74,0.00,CLR,CLR,0.00,WeatherDisplay:10.37,2013-09-30 06:20:00,
2013-09-30 00:25:00,43.2,35.5,30.05,ESE,117,1.0,6.0,74,0.00,CLR,CLR,0.00,WeatherDisplay:10.37,2013-09-30 06:25:00,
2013-09-30 00:30:00,43.1,35.4,30.04,ESE,117,0.0,4.0,74,0.00,CLR,CLR,0.00,WeatherDisplay:10.37,2013-09-30 06:30:00,
2013-09-30 00:35:00,42.9,35.2,30.04,ESE,116,0.0,3.0,74,0.00,CLR,CLR,0.00,WeatherDisplay:10.37,2013-09-30 06:35:00,
2013-09-30 00:40:00,42.7,35.0,30.04,ESE,116,0.0,0.0,74,0.00,CLR,CLR,0.00,WeatherDisplay:10.37,2013-09-30 06:40:00,
2013-09-30 00:45:00,42.5,34.8,30.04,ESE,117,0.0,0.0,74,0.00,CLR,CLR,0.00,WeatherDisplay:10.37,2013-09-30 06:45:00,
2013-09-30 00:50:00,42.6,34.9,30.04,ESE,115,1.0,5.0,74,0.00,CLR,CLR,0.00,WeatherDisplay:10.37,2013-09-30 06:50:00,
2013-09-30 00:55:00,42.7,35.0,30.04,ESE,116,0.0,0.0,74,0.00,CLR,CLR,0.00,WeatherDisplay:10.37,2013-09-30 06:55:00,
2013-09-30 01:00:00,42.6,34.9,30.04,ESE,115,0.0,0.0,74,0.00,CLR,CLR,0.00,WeatherDisplay:10.37,2013-09-30 07:00:00,
2013-09-30 01:05:00,42.4,35.0,30.05,ESE,114,0.0,0.0,75,0.00,CLR,CLR,0.00,WeatherDisplay:10.37,2013-09-30 07:05:00,
2013-09-30 01:10:00,41.9,34.6,30.04,ESE,119,0.0,0.0,75,0.00,CLR,CLR,0.00,WeatherDisplay:10.37,2013-09-30 07:10:00,
2013-09-30 01:15:00,41.5,34.1,30.04,ESE,118,0.0,0.0,75,0.00,CLR,CLR,0.00,WeatherDisplay:10.37,2013-09-30 07:15:00,
2013-09-30 01:20:00,41.1,34.1,30.04,ESE,114,0.0,1.0,76,0.00,CLR,CLR,0.00,WeatherDisplay:10.37,2013-09-30 07:20:00,
2013-09-30 01:25:00,41.1,34.1,30.04,ESE,113,0.0,1.0,76,0.00,CLR,CLR,0.00,WeatherDisplay:10.37,2013-09-30 07:25:00,
2013-09-30 01:30:00,41.1,34.1,30.04,ESE,113,0.0,0.0,76,0.00,CLR,CLR,0.00,WeatherDisplay:10.37,2013-09-30 07:30:00,
2013-09-30 01:35:00,40.8,33.8,30.04,ESE,113,0.0,0.0,76,0.00,CLR,CLR,0.00,WeatherDisplay:10.37,2013-09-30 07:35:00,
2013-09-30 01:40:00,40.9,33.6,30.04,ESE,114,0.0,4.0,75,0.00,CLR,CLR,0.00,WeatherDisplay:10.37,2013-09-30 07:40:00,
2013-09-30 01:45:00,41.1,33.8,30.04,ESE,116,0.0,4.0,75,0.00,CLR,CLR,0.00,WeatherDisplay:10.37,2013-09-30 07:45:00,
2013-09-30 01:50:00,41.4,34.1,30.04,ESE,110,0.0,3.0,75,0.00,CLR,CLR,0.00,WeatherDisplay:10.37,2013-09-30 07:50:00,
2013-09-30 01:55:00,41.2,33.9,30.04,ESE,109,1.0,6.0,75,0.00,CLR,CLR,0.00,WeatherDisplay:10.37,2013-09-30 07:55:00,
2013-09-30 02:00:00,41.5,33.8,30.03,ESE,104,1.0,7.0,74,0.00,CLR,CLR,0.00,WeatherDisplay:10.37,2013-09-30 08:00:00,
2013-09-30 02:05:00,41.9,33.9,30.04,ESE,103,2.0,10.0,73,0.00,CLR,CLR,0.00,WeatherDisplay:10.37,2013-09-30 08:05:00,
2013-09-30 02:10:00,42.7,34.3,30.03,ESE,106,1.0,10.0,72,0.00,CLR,CLR,0.00,WeatherDisplay:10.37,2013-09-30 08:10:00,
2013-09-30 02:15:00,42.5,33.8,30.03,ESE,113,3.0,6.0,71,0.00,CLR,CLR,0.00,WeatherDisplay:10.37,2013-09-30 08:15:00,
2013-09-30 02:20:00,42.8,33.7,30.03,ESE,121,3.0,7.0,70,0.00,CLR,CLR,0.00,WeatherDisplay:10.37,2013-09-30 08:20:00,
2013-09-30 02:25:00,43.3,33.4,30.03,ESE,122,1.0,5.0,68,0.00,CLR,CLR,0.00,WeatherDisplay:10.37,2013-09-30 08:25:00,
2013-09-30 02:30:00,43.1,33.7,30.03,ESE,119,0.0,4.0,69,0.00,CLR,CLR,0.00,WeatherDisplay:10.37,2013-09-30 08:30:00,
2013-09-30 02:35:00,43.0,33.6,30.03,ESE,120,3.0,7.0,69,0.00,CLR,CLR,0.00,WeatherDisplay:10.37,2013-09-30 08:35:00,
2013-09-30 02:40:00,42.4,33.3,30.02,SE,125,2.0,5.0,70,0.00,CLR,CLR,0.00,WeatherDisplay:10.37,2013-09-30 08:40:00,
2013-09-30 02:45:00,42.2,33.5,30.02,SE,124,0.0,6.0,71,0.00,CLR,CLR,0.00,WeatherDisplay:10.37,2013-09-30 08:45:00,
2013-09-30 02:50:00,42.3,33.2,30.02,ESE,111,0.0,0.0,70,0.00,CLR,CLR,0.00,WeatherDisplay:10.37,2013-09-30 08:50:00,
2013-09-30 02:55:00,41.9,33.2,30.02,ESE,105,0.0,0.0,71,0.00,CLR,CLR,0.00,WeatherDisplay:10.37,2013-09-30 08:55:00,
2013-09-30 03:00:00,41.7,33.0,30.02,East,101,0.0,2.0,71,0.00,CLR,CLR,0.00,WeatherDisplay:10.37,2013-09-30 09:00:00,
2013-09-30 03:05:00,41.5,33.2,30.02,East,93,0.0,0.0,72,0.00,CLR,CLR,0.00,WeatherDisplay:10.37,2013-09-30 09:05:00,
2013-09-30 03:10:00,41.4,33.0,30.01,East,91,0.0,3.0,72,0.00,CLR,CLR,0.00,WeatherDisplay:10.37,2013-09-30 09:10:00,
2013-09-30 03:15:00,41.6,32.9,30.01,ESE,107,1.0,6.0,71,0.00,CLR,CLR,0.00,WeatherDisplay:10.37,2013-09-30 09:15:00,
2013-09-30 03:20:00,41.9,32.8,30.01,ESE,120,1.0,4.0,70,0.00,CLR,CLR,0.00,WeatherDisplay:10.37,2013-09-30 09:20:00,
2013-09-30 03:25:00,42.2,32.8,30.01,ESE,117,1.0,5.0,69,0.00,CLR,CLR,0.00,WeatherDisplay:10.37,2013-09-30 09:25:00,
2013-09-30 03:30:00,42.4,32.9,30.01,ESE,116,1.0,5.0,69,0.00,CLR,CLR,0.00,WeatherDisplay:10.37,2013-09-30 09:30:00,
2013-09-30 03:35:00,42.4,33.0,30.00,ESE,121,0.0,5.0,69,0.00,CLR,CLR,0.00,WeatherDisplay:10.37,2013-09-30 09:35:00,
2013-09-30 03:40:00,41.9,32.8,30.01,SE,132,0.0,1.0,70,0.00,CLR,CLR,0.00,WeatherDisplay:10.37,2013-09-30 09:40:00,
2013-09-30 03:45:00,41.5,32.4,30.01,SSE,156,0.0,0.0,70,0.00,CLR,CLR,0.00,WeatherDisplay:10.37,2013-09-30 09:45:00,
2013-09-30 03:50:00,40.7,32.0,30.01,SSE,162,0.0,0.0,71,0.00,CLR,CLR,0.00,WeatherDisplay:10.37,2013-09-30 09:50:00,
2013-09-30 03:55:00,40.1,32.2,30.01,SSE,159,0.0,0.0,73,0.00,CLR,CLR,0.00,WeatherDisplay:10.37,2013-09-30 09:55:00,
2013-09-30 04:00:00,40.3,32.0,30.01,SE,143,3.0,5.0,72,0.00,CLR,CLR,0.00,WeatherDisplay:10.37,2013-09-30 10:00:00,
2013-09-30 04:05:00,40.8,32.2,30.01,SE,141,1.0,6.0,71,0.00,CLR,CLR,0.00,WeatherDisplay:10.37,2013-09-30 10:05:00,
2013-09-30 04:10:00,41.0,33.3,30.01,SE,142,1.0,6.0,74,0.00,CLR,CLR,0.00,WeatherDisplay:10.37,2013-09-30 10:10:00,
2013-09-30 04:15:00,41.0,32.0,30.00,SE,132,0.0,5.0,70,0.00,CLR,CLR,0.00,WeatherDisplay:10.37,2013-09-30 10:15:00,
2013-09-30 04:20:00,41.1,32.1,30.01,SE,130,0.0,4.0,70,0.00,CLR,CLR,0.00,WeatherDisplay:10.37,2013-09-30 10:20:00,
2013-09-30 04:25:00,40.9,32.3,30.01,SE,130,0.0,5.0,71,0.00,CLR,CLR,0.00,WeatherDisplay:10.37,2013-09-30 10:25:00,
2013-09-30 04:30:00,40.7,32.4,30.01,ESE,118,0.0,4.0,72,0.00,CLR,CLR,0.00,WeatherDisplay:10.37,2013-09-30 10:30:00,
2013-09-30 04:40:00,40.1,32.1,30.00,ESE,113,0.0,4.0,73,0.00,CLR,CLR,0.00,WeatherDisplay:10.37,2013-09-30 10:40:00,
2013-09-30 04:45:00,40.0,32.0,30.00,ESE,112,0.0,0.0,73,0.00,CLR,CLR,0.00,WeatherDisplay:10.37,2013-09-30 10:45:00,
2013-09-30 04:50:00,39.8,32.2,30.00,East,99,0.0,2.0,74,0.00,CLR,CLR,0.00,WeatherDisplay:10.37,2013-09-30 10:50:00,
2013-09-30 04:55:00,39.7,32.1,30.00,East,82,0.0,0.0,74,0.00,CLR,CLR,0.00,WeatherDisplay:10.37,2013-09-30 10:55:00,
2013-09-30 05:00:00,38.4,31.5,30.00,East,95,0.0,0.0,76,0.00,CLR,CLR,0.00,WeatherDisplay:10.37,2013-09-30 11:00:00,
2013-09-30 05:05:00,37.6,31.0,30.00,SE,124,0.0,0.0,77,0.00,CLR,CLR,0.00,WeatherDisplay:10.37,2013-09-30 11:05:00,
2013-09-30 05:10:00,36.6,31.0,30.00,SE,135,0.0,0.0,80,0.00,CLR,CLR,0.00,WeatherDisplay:10.37,2013-09-30 11:10:00,
2013-09-30 05:15:00,36.0,30.7,30.00,SE,135,0.0,0.0,81,0.00,CLR,CLR,0.00,WeatherDisplay:10.37,2013-09-30 11:15:00,
2013-09-30 05:20:00,35.9,30.9,30.00,SE,135,0.0,0.0,82,0.00,CLR,CLR,0.00,WeatherDisplay:10.37,2013-09-30 11:20:00,
2013-09-30 05:25:00,35.4,30.8,30.00,SE,143,3.0,5.0,83,0.00,CLR,CLR,0.00,WeatherDisplay:10.37,2013-09-30 11:25:00,
2013-09-30 05:30:00,35.8,31.1,30.00,SSE,151,0.0,0.0,83,0.00,CLR,CLR,0.00,WeatherDisplay:10.37,2013-09-30 11:30:00,
2013-09-30 05:35:00,35.7,31.0,30.00,SSE,154,0.0,0.0,83,0.00,CLR,CLR,0.00,WeatherDisplay:10.37,2013-09-30 11:35:00,
2013-09-30 05:40:00,35.1,30.8,30.00,SSE,154,0.0,0.0,84,0.00,CLR,CLR,0.00,WeatherDisplay:10.37,2013-09-30 11:40:00,
2013-09-30 05:45:00,35.1,31.0,29.99,SSE,154,0.0,0.0,85,0.00,CLR,CLR,0.00,WeatherDisplay:10.37,2013-09-30 11:45:00,
2013-09-30 05:50:00,34.6,30.5,29.99,SSE,154,0.0,0.0,85,0.00,CLR,CLR,0.00,WeatherDisplay:10.37,2013-09-30 11:50:00,
2013-09-30 05:55:00,34.4,30.6,29.99,SSE,154,0.0,0.0,86,0.00,CLR,CLR,0.00,WeatherDisplay:10.37,2013-09-30 11:55:00,
2013-09-30 06:00:00,34.4,30.6,29.99,SSE,154,0.0,0.0,86,0.00,CLR,CLR,0.00,WeatherDisplay:10.37,2013-09-30 12:00:00,
2013-09-30 06:05:00,34.4,30.6,29.99,SSE,154,0.0,0.0,86,0.00,CLR,CLR,0.00,WeatherDisplay:10.37,2013-09-30 12:05:00,
2013-09-30 06:10:00,34.4,30.7,29.99,SSE,154,0.0,0.0,86,0.00,CLR,CLR,0.00,WeatherDisplay:10.37,2013-09-30 12:10:00,
2013-09-30 06:15:00,34.7,30.9,29.99,SSE,154,0.0,0.0,86,0.00,CLR,CLR,0.00,WeatherDisplay:10.37,2013-09-30 12:15:00,
2013-09-30 06:20:00,35.2,31.1,29.99,SSE,151,0.0,0.0,85,0.00,CLR,CLR,0.00,WeatherDisplay:10.37,2013-09-30 12:20:00,
2013-09-30 06:25:00,36.0,31.3,29.99,SSE,147,0.0,0.0,83,0.00,CLR,CLR,0.00,WeatherDisplay:10.37,2013-09-30 12:25:00,
2013-09-30 06:30:00,36.0,31.3,29.99,SE,146,0.0,1.0,83,0.00,CLR,CLR,0.00,WeatherDisplay:10.37,2013-09-30 12:30:00,
2013-09-30 06:35:00,35.9,31.2,29.98,SE,146,0.0,0.0,83,0.00,CLR,CLR,0.00,WeatherDisplay:10.37,2013-09-30 12:35:00,
2013-09-30 06:40:00,35.7,31.3,29.98,SE,145,0.0,0.0,84,0.00,CLR,CLR,0.00,WeatherDisplay:10.37,2013-09-30 12:40:00,
2013-09-30 06:50:00,35.6,31.2,29.98,SE,145,0.0,0.0,84,0.00,CLR,CLR,0.00,WeatherDisplay:10.37,2013-09-30 12:50:00,
2013-09-30 06:55:00,36.1,31.4,29.98,SE,145,0.0,0.0,83,0.00,CLR,CLR,0.00,WeatherDisplay:10.37,2013-09-30 12:55:00,
2013-09-30 07:00:00,36.2,31.5,29.98,SE,146,0.0,1.0,83,0.00,CLR,CLR,0.00,WeatherDisplay:10.37,2013-09-30 13:00:00,
2013-09-30 07:05:00,36.8,31.5,29.98,SE,146,0.0,1.0,81,0.00,CLR,CLR,0.00,WeatherDisplay:10.37,2013-09-30 13:05:00,
2013-09-30 07:10:00,37.3,31.4,29.99,SE,146,0.0,0.0,79,0.00,CLR,CLR,0.00,WeatherDisplay:10.37,2013-09-30 13:10:00,
2013-09-30 07:15:00,37.6,31.6,29.98,SSE,150,0.0,0.0,79,0.00,CLR,CLR,0.00,WeatherDisplay:10.37,2013-09-30 13:15:00,
2013-09-30 07:20:00,37.6,32.0,29.98,SSE,152,0.0,0.0,80,0.00,CLR,CLR,0.00,WeatherDisplay:10.37,2013-09-30 13:20:00,
2013-09-30 07:25:00,37.4,31.5,29.99,SSE,152,0.0,0.0,79,0.00,CLR,CLR,0.00,WeatherDisplay:10.37,2013-09-30 13:25:00,
2013-09-30 07:30:00,37.3,31.4,29.99,SSE,152,0.0,0.0,79,0.00,CLR,CLR,0.00,WeatherDisplay:10.37,2013-09-30 13:30:00,
2013-09-30 07:35:00,37.0,31.7,29.99,SSE,152,0.0,0.0,81,0.00,CLR,CLR,0.00,WeatherDisplay:10.37,2013-09-30 13:35:00,
2013-09-30 07:40:00,36.8,31.5,30.00,SE,140,0.0,0.0,81,0.00,CLR,CLR,0.00,WeatherDisplay:10.37,2013-09-30 13:40:00,
2013-09-30 07:45:00,36.9,31.9,30.00,ESE,102,0.0,0.0,82,0.00,CLR,CLR,0.00,WeatherDisplay:10.37,2013-09-30 13:45:00,
2013-09-30 07:50:00,37.5,32.8,30.00,East,82,0.0,0.0,83,0.00,CLR,CLR,0.00,WeatherDisplay:10.37,2013-09-30 13:50:00,
2013-09-30 07:55:00,38.5,33.4,30.00,East,82,0.0,0.0,82,0.00,CLR,CLR,0.00,WeatherDisplay:10.37,2013-09-30 13:55:00,
2013-09-30 08:00:00,39.3,33.6,30.00,East,82,0.0,0.0,80,0.00,CLR,CLR,0.00,WeatherDisplay:10.37,2013-09-30 14:00:00,
2013-09-30 08:05:00,39.8,34.1,30.00,East,82,0.0,0.0,80,0.00,CLR,CLR,0.00,WeatherDisplay:10.37,2013-09-30 14:05:00,
2013-09-30 08:10:00,40.4,34.4,30.00,East,83,0.0,1.0,79,0.00,CLR,CLR,0.00,WeatherDisplay:10.37,2013-09-30 14:10:00,
2013-09-30 08:15:00,40.9,34.6,30.00,ESE,104,3.0,5.0,78,0.00,CLR,CLR,0.00,WeatherDisplay:10.37,2013-09-30 14:15:00,
2013-09-30 08:20:00,41.5,35.2,30.00,ESE,116,1.0,4.0,78,0.00,CLR,CLR,0.00,WeatherDisplay:10.37,2013-09-30 14:20:00,
2013-09-30 08:25:00,42.3,35.6,30.00,ESE,122,0.0,0.0,77,0.00,CLR,CLR,0.00,WeatherDisplay:10.37,2013-09-30 14:25:00,
2013-09-30 08:30:00,43.2,36.1,30.00,ESE,123,0.0,0.0,76,0.00,CLR,CLR,0.00,WeatherDisplay:10.37,2013-09-30 14:30:00,
2013-09-30 08:35:00,44.2,36.1,29.99,ESE,117,0.0,3.0,73,0.00,CLR,CLR,0.00,WeatherDisplay:10.37,2013-09-30 14:35:00,
2013-09-30 08:40:00,45.0,36.2,29.99,ESE,118,0.0,0.0,71,0.00,CLR,CLR,0.00,WeatherDisplay:10.37,2013-09-30 14:40:00,
2013-09-30 08:50:00,46.6,36.6,29.99,ESE,118,0.0,3.0,68,0.00,CLR,CLR,0.00,WeatherDisplay:10.37,2013-09-30 14:50:00,
2013-09-30 08:55:00,47.4,36.2,29.99,East,99,0.0,0.0,65,0.00,CLR,CLR,0.00,WeatherDisplay:10.37,2013-09-30 14:55:00,
2013-09-30 09:00:00,48.4,37.1,29.99,East,80,0.0,0.0,65,0.00,CLR,CLR,0.00,WeatherDisplay:10.37,2013-09-30 15:00:00,
2013-09-30 09:05:00,49.3,36.8,29.99,ENE,69,0.0,0.0,62,0.00,CLR,CLR,0.00,WeatherDisplay:10.37,2013-09-30 15:05:00,
2013-09-30 09:10:00,50.1,37.2,29.99,NNE,19,0.0,0.0,61,0.00,CLR,CLR,0.00,WeatherDisplay:10.37,2013-09-30 15:10:00,
2013-09-30 09:15:00,51.2,38.2,29.99,NW,312,0.0,0.0,61,0.00,CLR,CLR,0.00,WeatherDisplay:10.37,2013-09-30 15:15:00,
2013-09-30 09:20:00,52.1,38.2,29.99,NW,304,0.0,0.0,59,0.00,CLR,CLR,0.00,WeatherDisplay:10.37,2013-09-30 15:20:00,
2013-09-30 09:25:00,52.8,37.1,29.98,NW,304,0.0,0.0,55,0.00,CLR,CLR,0.00,WeatherDisplay:10.37,2013-09-30 15:25:00,
2013-09-30 09:30:00,53.1,38.3,29.99,NW,304,0.0,0.0,57,0.00,CLR,CLR,0.00,WeatherDisplay:10.37,2013-09-30 15:30:00,
2013-09-30 09:35:00,53.6,36.8,29.99,NW,304,0.0,0.0,53,0.00,CLR,CLR,0.00,WeatherDisplay:10.37,2013-09-30 15:35:00,
2013-09-30 09:40:00,53.8,38.0,29.98,NW,304,0.0,0.0,55,0.00,CLR,CLR,0.00,WeatherDisplay:10.37,2013-09-30 15:40:00,
2013-09-30 09:45:00,54.5,37.7,29.98,NW,304,0.0,0.0,53,0.00,CLR,CLR,0.00,WeatherDisplay:10.37,2013-09-30 15:45:00,
2013-09-30 09:50:00,55.1,38.7,29.98,NW,304,0.0,0.0,54,0.00,CLR,CLR,0.00,WeatherDisplay:10.37,2013-09-30 15:50:00,
2013-09-30 09:55:00,55.4,39.1,29.98,NW,304,0.0,0.0,54,0.00,CLR,CLR,0.00,WeatherDisplay:10.37,2013-09-30 15:55:00,
2013-09-30 10:00:00,55.9,37.5,29.98,NW,304,0.0,0.0,50,0.00,CLR,CLR,0.00,WeatherDisplay:10.37,2013-09-30 16:00:00,
2013-09-30 10:05:00,56.2,39.3,29.99,NW,304,0.0,0.0,53,0.00,CLR,CLR,0.00,WeatherDisplay:10.37,2013-09-30 16:05:00,
2013-09-30 10:10:00,56.2,38.8,29.99,NW,304,0.0,0.0,52,0.00,CLR,CLR,0.00,WeatherDisplay:10.37,2013-09-30 16:10:00,
2013-09-30 10:15:00,56.3,37.9,29.99,NW,304,0.0,0.0,50,0.00,CLR,CLR,0.00,WeatherDisplay:10.37,2013-09-30 16:15:00,
2013-09-30 10:20:00,56.9,36.9,29.98,NW,304,0.0,0.0,47,0.00,CLR,CLR,0.00,WeatherDisplay:10.37,2013-09-30 16:20:00,
2013-09-30 10:25:00,57.3,38.3,29.98,NW,304,0.0,0.0,49,0.00,CLR,CLR,0.00,WeatherDisplay:10.37,2013-09-30 16:25:00,
2013-09-30 10:30:00,57.4,37.3,29.98,WNW,300,0.0,0.0,47,0.00,CLR,CLR,0.00,WeatherDisplay:10.37,2013-09-30 16:30:00,
2013-09-30 10:35:00,57.5,36.3,29.98,NNW,341,0.0,0.0,45,0.00,CLR,CLR,0.00,WeatherDisplay:10.37,2013-09-30 16:35:00,
2013-09-30 10:40:00,57.9,37.8,29.98,North,10,0.0,0.0,47,0.00,CLR,CLR,0.00,WeatherDisplay:10.37,2013-09-30 16:40:00,
2013-09-30 10:45:00,58.5,38.3,29.97,North,360,0.0,0.0,47,0.00,CLR,CLR,0.00,WeatherDisplay:10.37,2013-09-30 16:45:00,
2013-09-30 10:50:00,59.4,39.2,29.98,North,1,0.0,0.0,47,0.00,CLR,CLR,0.00,WeatherDisplay:10.37,2013-09-30 16:50:00,
2013-09-30 10:55:00,60.3,42.1,29.97,North,3,0.0,2.0,51,0.00,CLR,CLR,0.00,WeatherDisplay:10.37,2013-09-30 16:55:00,
2013-09-30 11:00:00,60.7,40.4,29.97,NE,38,0.0,1.0,47,0.00,CLR,CLR,0.00,WeatherDisplay:10.37,2013-09-30 17:00:00,
2013-09-30 11:05:00,61.2,40.2,29.97,East,81,0.0,0.0,46,0.00,CLR,CLR,0.00,WeatherDisplay:10.37,2013-09-30 17:05:00,
2013-09-30 11:10:00,61.5,41.7,29.96,East,87,0.0,0.0,48,0.00,CLR,CLR,0.00,WeatherDisplay:10.37,2013-09-30 17:10:00,
2013-09-30 11:15:00,61.9,41.4,29.96,ESE,104,0.0,1.0,47,0.00,CLR,CLR,0.00,WeatherDisplay:10.37,2013-09-30 17:15:00,
2013-09-30 11:20:00,62.0,41.0,29.96,SSE,147,1.0,3.0,46,0.00,CLR,CLR,0.00,WeatherDisplay:10.37,2013-09-30 17:20:00,
2013-09-30 11:25:00,62.3,39.5,29.95,SW,222,0.0,0.0,43,0.00,CLR,CLR,0.00,WeatherDisplay:10.37,2013-09-30 17:25:00,
2013-09-30 11:30:00,62.5,42.0,29.95,SW,233,0.0,3.0,47,0.00,CLR,CLR,0.00,WeatherDisplay:10.37,2013-09-30 17:30:00,
2013-09-30 11:40:00,62.9,40.6,29.94,SW,232,0.0,1.0,44,0.00,CLR,CLR,0.00,WeatherDisplay:10.37,2013-09-30 17:40:00,
2013-09-30 11:45:00,63.3,42.7,29.94,WSW,240,0.0,0.0,47,0.00,CLR,CLR,0.00,WeatherDisplay:10.37,2013-09-30 17:45:00,
2013-09-30 11:50:00,63.8,41.4,29.94,WSW,256,0.0,0.0,44,0.00,CLR,CLR,0.00,WeatherDisplay:10.37,2013-09-30 17:50:00,
2013-09-30 11:55:00,64.0,41.7,29.94,West,262,0.0,0.0,44,0.00,CLR,CLR,0.00,WeatherDisplay:10.37,2013-09-30 17:55:00,
2013-09-30 12:00:00,64.3,40.7,29.93,WSW,256,0.0,0.0,42,0.00,CLR,CLR,0.00,WeatherDisplay:10.37,2013-09-30 18:00:00,
2013-09-30 12:05:00,64.6,42.2,29.93,WSW,258,0.0,0.0,44,0.00,CLR,CLR,0.00,WeatherDisplay:10.37,2013-09-30 18:05:00,
2013-09-30 12:10:00,65.2,42.8,29.93,WSW,258,0.0,0.0,44,0.00,CLR,CLR,0.00,WeatherDisplay:10.37,2013-09-30 18:10:00,
2013-09-30 12:15:00,65.9,43.3,29.93,WSW,258,0.0,0.0,44,0.00,CLR,CLR,0.00,WeatherDisplay:10.37,2013-09-30 18:15:00,
2013-09-30 12:20:00,66.5,42.0,29.93,West,261,1.0,4.0,41,0.00,CLR,CLR,0.00,WeatherDisplay:10.37,2013-09-30 18:20:00,
2013-09-30 12:25:00,66.5,41.4,29.92,WSW,247,0.0,3.0,40,0.00,CLR,CLR,0.00,WeatherDisplay:10.37,2013-09-30 18:25:00,
2013-09-30 12:30:00,66.7,41.6,29.92,WSW,241,1.0,3.0,40,0.00,CLR,CLR,0.00,WeatherDisplay:10.37,2013-09-30 18:30:00,
2013-09-30 12:35:00,67.1,40.6,29.92,WSW,257,1.0,5.0,38,0.00,CLR,CLR,0.00,WeatherDisplay:10.37,2013-09-30 18:35:00,
2013-09-30 12:40:00,67.4,40.9,29.92,West,263,0.0,3.0,38,0.00,CLR,CLR,0.00,WeatherDisplay:10.37,2013-09-30 18:40:00,
2013-09-30 12:45:00,67.7,41.8,29.92,WSW,246,1.0,4.0,39,0.00,CLR,CLR,0.00,WeatherDisplay:10.37,2013-09-30 18:45:00,
2013-09-30 12:50:00,67.8,41.9,29.91,SW,235,0.0,6.0,39,0.00,CLR,CLR,0.00,WeatherDisplay:10.37,2013-09-30 18:50:00,
2013-09-30 12:55:00,68.0,41.5,29.91,SW,221,0.0,2.0,38,0.00,CLR,CLR,0.00,WeatherDisplay:10.37,2013-09-30 18:55:00,
2013-09-30 13:00:00,68.4,42.5,29.91,SW,231,0.0,4.0,39,0.00,CLR,CLR,0.00,WeatherDisplay:10.37,2013-09-30 19:00:00,
2013-09-30 13:05:00,68.7,41.4,29.90,WSW,241,0.0,2.0,37,0.00,CLR,CLR,0.00,WeatherDisplay:10.37,2013-09-30 19:05:00,
2013-09-30 13:10:00,69.2,43.1,29.90,SW,234,0.0,1.0,39,0.00,CLR,CLR,0.00,WeatherDisplay:10.37,2013-09-30 19:10:00,
2013-09-30 13:15:00,69.8,43.0,29.89,WSW,249,2.0,5.0,38,0.00,CLR,CLR,0.00,WeatherDisplay:10.37,2013-09-30 19:15:00,
2013-09-30 13:20:00,69.7,43.6,29.89,West,263,0.0,5.0,39,0.00,CLR,CLR,0.00,WeatherDisplay:10.37,2013-09-30 19:20:00,
2013-09-30 13:25:00,69.6,41.4,29.88,WSW,249,0.0,4.0,36,0.00,CLR,CLR,0.00,WeatherDisplay:10.37,2013-09-30 19:25:00,
2013-09-30 13:30:00,69.5,42.1,29.88,SW,236,0.0,4.0,37,0.00,CLR,CLR,0.00,WeatherDisplay:10.37,2013-09-30 19:30:00,
2013-09-30 13:35:00,69.7,42.2,29.88,WSW,247,0.0,2.0,37,0.00,CLR,CLR,0.00,WeatherDisplay:10.37,2013-09-30 19:35:00,
2013-09-30 13:40:00,69.7,43.6,29.87,SW,214,0.0,1.0,39,0.00,CLR,CLR,0.00,WeatherDisplay:10.37,2013-09-30 19:40:00,
2013-09-30 13:45:00,70.2,42.7,29.86,SW,228,0.0,0.0,37,0.00,CLR,CLR,0.00,WeatherDisplay:10.37,2013-09-30 19:45:00,
2013-09-30 13:50:00,70.8,41.8,29.86,West,263,0.0,0.0,35,0.00,CLR,CLR,0.00,WeatherDisplay:10.37,2013-09-30 19:50:00,
2013-09-30 13:55:00,71.1,42.8,29.85,WSW,257,0.0,0.0,36,0.00,CLR,CLR,0.00,WeatherDisplay:10.37,2013-09-30 19:55:00,
2013-09-30 14:00:00,71.3,43.6,29.85,WSW,245,0.0,0.0,37,0.00,CLR,CLR,0.00,WeatherDisplay:10.37,2013-09-30 20:00:00,
2013-09-30 14:05:00,71.7,45.4,29.85,WSW,239,0.0,0.0,39,0.00,CLR,CLR,0.00,WeatherDisplay:10.37,2013-09-30 20:05:00,
2013-09-30 14:10:00,72.2,45.2,29.84,West,262,0.0,1.0,38,0.00,CLR,CLR,0.00,WeatherDisplay:10.37,2013-09-30 20:10:00,
2013-09-30 14:15:00,72.3,43.1,29.84,WNW,285,0.0,2.0,35,0.00,CLR,CLR,0.00,WeatherDisplay:10.37,2013-09-30 20:15:00,
2013-09-30 14:20:00,72.1,42.2,29.84,West,276,0.0,3.0,34,0.00,CLR,CLR,0.00,WeatherDisplay:10.37,2013-09-30 20:20:00,
2013-09-30 14:25:00,72.2,43.8,29.84,WNW,292,1.0,3.0,36,0.00,CLR,CLR,0.00,WeatherDisplay:10.37,2013-09-30 20:25:00,
2013-09-30 14:30:00,72.0,43.6,29.83,NW,324,0.0,4.0,36,0.00,CLR,CLR,0.00,WeatherDisplay:10.37,2013-09-30 20:30:00,
2013-09-30 14:35:00,72.1,45.1,29.83,NW,307,0.0,3.0,38,0.00,CLR,CLR,0.00,WeatherDisplay:10.37,2013-09-30 20:35:00,
2013-09-30 14:40:00,72.3,43.9,29.83,WNW,291,0.0,3.0,36,0.00,CLR,CLR,0.00,WeatherDisplay:10.37,2013-09-30 20:40:00,
2013-09-30 14:45:00,72.8,44.3,29.83,WNW,285,0.0,0.0,36,0.00,CLR,CLR,0.00,WeatherDisplay:10.37,2013-09-30 20:45:00,
2013-09-30 14:50:00,73.1,45.3,29.83,WNW,282,0.0,7.0,37,0.00,CLR,CLR,0.00,WeatherDisplay:10.37,2013-09-30 20:50:00,
2013-09-30 14:55:00,72.9,44.4,29.83,WNW,286,0.0,2.0,36,0.00,CLR,CLR,0.00,WeatherDisplay:10.37,2013-09-30 20:55:00,
2013-09-30 15:00:00,72.9,45.8,29.83,West,280,0.0,6.0,38,0.00,CLR,CLR,0.00,WeatherDisplay:10.37,2013-09-30 21:00:00,
2013-09-30 15:05:00,73.1,44.5,29.83,West,269,0.0,5.0,36,0.00,CLR,CLR,0.00,WeatherDisplay:10.37,2013-09-30 21:05:00,
2013-09-30 15:10:00,73.2,46.7,29.83,West,269,1.0,6.0,39,0.00,CLR,CLR,0.00,WeatherDisplay:10.37,2013-09-30 21:10:00,
2013-09-30 15:15:00,73.4,44.8,29.83,West,276,1.0,6.0,36,0.00,CLR,CLR,0.00,WeatherDisplay:10.37,2013-09-30 21:15:00,
2013-09-30 15:20:00,73.2,44.6,29.83,West,270,6.0,12.0,36,0.00,CLR,CLR,0.00,WeatherDisplay:10.37,2013-09-30 21:20:00,
2013-09-30 15:25:00,73.0,45.9,29.83,West,267,2.0,7.0,38,0.00,CLR,CLR,0.00,WeatherDisplay:10.37,2013-09-30 21:25:00,
2013-09-30 15:30:00,73.2,45.4,29.83,West,263,1.0,7.0,37,0.00,CLR,CLR,0.00,WeatherDisplay:10.37,2013-09-30 21:30:00,
2013-09-30 15:35:00,73.4,46.9,29.82,WSW,257,1.0,4.0,39,0.00,CLR,CLR,0.00,WeatherDisplay:10.37,2013-09-30 21:35:00,
2013-09-30 15:40:00,73.6,47.1,29.82,WSW,246,0.0,9.0,39,0.00,CLR,CLR,0.00,WeatherDisplay:10.37,2013-09-30 21:40:00,
2013-09-30 15:45:00,73.8,45.2,29.82,WSW,254,5.0,9.0,36,0.00,CLR,CLR,0.00,WeatherDisplay:10.37,2013-09-30 21:45:00,
2013-09-30 15:50:00,73.8,45.9,29.82,West,262,0.0,6.0,37,0.00,CLR,CLR,0.00,WeatherDisplay:10.37,2013-09-30 21:50:00,
2013-09-30 15:55:00,73.9,45.3,29.82,WNW,285,0.0,5.0,36,0.00,CLR,CLR,0.00,WeatherDisplay:10.37,2013-09-30 21:55:00,
2013-09-30 16:00:00,73.7,45.8,29.82,WNW,302,0.0,7.0,37,0.00,CLR,CLR,0.00,WeatherDisplay:10.37,2013-09-30 22:00:00,
2013-09-30 16:05:00,73.7,44.3,29.82,WNW,302,3.0,9.0,35,0.00,CLR,CLR,0.00,WeatherDisplay:10.37,2013-09-30 22:05:00,
2013-09-30 16:10:00,73.7,45.1,29.81,WNW,302,1.0,8.0,36,0.00,CLR,CLR,0.00,WeatherDisplay:10.37,2013-09-30 22:10:00,
2013-09-30 16:20:00,73.9,44.5,29.81,West,271,1.0,7.0,35,0.00,CLR,CLR,0.00,WeatherDisplay:10.37,2013-09-30 22:20:00,
2013-09-30 16:25:00,73.8,44.4,29.81,West,274,2.0,9.0,35,0.00,CLR,CLR,0.00,WeatherDisplay:10.37,2013-09-30 22:25:00,
2013-09-30 16:30:00,73.6,43.4,29.81,WNW,282,2.0,9.0,34,0.00,CLR,CLR,0.00,WeatherDisplay:10.37,2013-09-30 22:30:00,
2013-09-30 16:35:00,73.3,44.0,29.81,West,279,2.0,10.0,35,0.00,CLR,CLR,0.00,WeatherDisplay:10.37,2013-09-30 22:35:00,
2013-09-30 16:40:00,73.3,43.2,29.81,West,281,3.0,12.0,34,0.00,CLR,CLR,0.00,WeatherDisplay:10.37,2013-09-30 22:40:00,
2013-09-30 16:45:00,73.4,44.1,29.81,WNW,300,1.0,10.0,35,0.00,CLR,CLR,0.00,WeatherDisplay:10.37,2013-09-30 22:45:00,
2013-09-30 16:50:00,73.3,43.2,29.81,WNW,283,6.0,13.0,34,0.00,CLR,CLR,0.00,WeatherDisplay:10.37,2013-09-30 22:50:00,
2013-09-30 16:55:00,73.0,42.2,29.81,West,280,6.0,12.0,33,0.00,CLR,CLR,0.00,WeatherDisplay:10.37,2013-09-30 22:55:00,
2013-09-30 17:00:00,72.9,41.3,29.81,WNW,293,5.0,10.0,32,0.00,CLR,CLR,0.00,WeatherDisplay:10.37,2013-09-30 23:00:00,
2013-09-30 17:05:00,73.0,42.2,29.81,WNW,293,6.0,12.0,33,0.00,CLR,CLR,0.00,WeatherDisplay:10.37,2013-09-30 23:05:00,
2013-09-30 17:10:00,72.9,42.9,29.81,WNW,294,1.0,12.0,34,0.00,CLR,CLR,0.00,WeatherDisplay:10.37,2013-09-30 23:10:00,
2013-09-30 17:15:00,72.9,42.1,29.81,WNW,292,6.0,12.0,33,0.00,CLR,CLR,0.00,WeatherDisplay:10.37,2013-09-30 23:15:00,
2013-09-30 17:20:00,72.7,41.9,29.81,WNW,301,6.0,12.0,33,0.00,CLR,CLR,0.00,WeatherDisplay:10.37,2013-09-30 23:20:00,
2013-09-30 17:25:00,72.4,41.7,29.81,WNW,294,6.0,12.0,33,0.00,CLR,CLR,0.00,WeatherDisplay:10.37,2013-09-30 23:25:00,
2013-09-30 17:30:00,72.3,41.6,29.81,WNW,293,3.0,10.0,33,0.00,CLR,CLR,0.00,WeatherDisplay:10.37,2013-09-30 23:30:00,
2013-09-30 17:35:00,72.2,41.5,29.81,WNW,299,1.0,10.0,33,0.00,CLR,CLR,0.00,WeatherDisplay:10.37,2013-09-30 23:35:00,
2013-09-30 17:40:00,72.3,41.6,29.81,WNW,297,3.0,9.0,33,0.00,CLR,CLR,0.00,WeatherDisplay:10.37,2013-09-30 23:40:00,
2013-09-30 17:45:00,72.2,41.5,29.81,WNW,299,3.0,10.0,33,0.00,CLR,CLR,0.00,WeatherDisplay:10.37,2013-09-30 23:45:00,
2013-09-30 17:50:00,72.1,41.4,29.81,WNW,292,1.0,7.0,33,0.00,CLR,CLR,0.00,WeatherDisplay:10.37,2013-09-30 23:50:00,
2013-09-30 17:55:00,72.1,41.4,29.81,WNW,292,1.0,5.0,33,0.00,CLR,CLR,0.00,WeatherDisplay:10.37,2013-09-30 23:55:00,
2013-09-30 18:00:00,71.8,40.3,29.81,NW,304,2.0,10.0,32,0.00,CLR,CLR,0.00,WeatherDisplay:10.37,2013-10-01 00:00:00,
2013-09-30 18:05:00,71.7,42.6,29.81,NW,306,0.0,3.0,35,0.00,CLR,CLR,0.00,WeatherDisplay:10.37,2013-10-01 00:05:00,
2013-09-30 18:10:00,71.7,41.8,29.81,WNW,293,0.0,1.0,34,0.00,CLR,CLR,0.00,WeatherDisplay:10.37,2013-10-01 00:10:00,
2013-09-30 18:15:00,71.8,41.1,29.81,WNW,291,0.0,1.0,33,0.00,CLR,CLR,0.00,WeatherDisplay:10.37,2013-10-01 00:15:00,
2013-09-30 18:20:00,71.6,42.4,29.81,WNW,290,0.0,0.0,35,0.00,CLR,CLR,0.00,WeatherDisplay:10.37,2013-10-01 00:20:00,
2013-09-30 18:25:00,70.8,41.8,29.81,WNW,284,0.0,0.0,35,0.00,CLR,CLR,0.00,WeatherDisplay:10.37,2013-10-01 00:25:00,
2013-09-30 18:30:00,69.4,42.7,29.82,West,275,0.0,0.0,38,0.00,CLR,CLR,0.00,WeatherDisplay:10.37,2013-10-01 00:30:00,
2013-09-30 18:35:00,67.3,42.1,29.82,WSW,246,0.0,3.0,40,0.00,CLR,CLR,0.00,WeatherDisplay:10.37,2013-10-01 00:35:00,
2013-09-30 18:40:00,65.6,41.3,29.82,SW,216,0.0,0.0,41,0.00,CLR,CLR,0.00,WeatherDisplay:10.37,2013-10-01 00:40:00,
2013-09-30 18:45:00,63.2,42.1,29.81,South,176,3.0,5.0,46,0.00,CLR,CLR,0.00,WeatherDisplay:10.37,2013-10-01 00:45:00,
2013-09-30 18:50:00,60.7,41.5,29.82,SSE,151,3.0,5.0,49,0.00,CLR,CLR,0.00,WeatherDisplay:10.37,2013-10-01 00:50:00,
2013-09-30 18:55:00,58.9,41.8,29.82,SSE,147,0.0,3.0,53,0.00,CLR,CLR,0.00,WeatherDisplay:10.37,2013-10-01 00:55:00,
2013-09-30 19:00:00,57.8,41.7,29.82,SSE,147,0.0,0.0,55,0.00,CLR,CLR,0.00,WeatherDisplay:10.37,2013-10-01 01:00:00,
2013-09-30 19:05:00,56.1,41.1,29.82,SSE,148,2.0,5.0,57,0.00,CLR,CLR,0.00,WeatherDisplay:10.37,2013-10-01 01:05:00,
2013-09-30 19:10:00,55.2,41.1,29.82,SSE,147,5.0,6.0,59,0.00,CLR,CLR,0.00,WeatherDisplay:10.37,2013-10-01 01:10:00,
2013-09-30 19:15:00,54.0,40.8,29.82,SSE,147,6.0,7.0,61,0.00,CLR,CLR,0.00,WeatherDisplay:10.37,2013-10-01 01:15:00,
2013-09-30 19:20:00,53.2,40.9,29.82,SSE,147,5.0,7.0,63,0.00,CLR,CLR,0.00,WeatherDisplay:10.37,2013-10-01 01:20:00,
2013-09-30 19:25:00,52.7,40.5,29.82,SSE,147,3.0,6.0,63,0.00,CLR,CLR,0.00,WeatherDisplay:10.37,2013-10-01 01:25:00,
2013-09-30 19:30:00,52.4,40.2,29.83,SSE,148,1.0,5.0,63,0.00,CLR,CLR,0.00,WeatherDisplay:10.37,2013-10-01 01:30:00,
2013-09-30 19:35:00,52.0,40.6,29.83,SE,145,0.0,0.0,65,0.00,CLR,CLR,0.00,WeatherDisplay:10.37,2013-10-01 01:35:00,
2013-09-30 19:40:00,51.7,40.7,29.84,SE,136,0.0,0.0,66,0.00,CLR,CLR,0.00,WeatherDisplay:10.37,2013-10-01 01:40:00,
2013-09-30 19:45:00,51.2,40.3,29.84,SE,129,0.0,4.0,66,0.00,CLR,CLR,0.00,WeatherDisplay:10.37,2013-10-01 01:45:00,
2013-09-30 19:50:00,50.5,40.0,29.84,ESE,120,0.0,3.0,67,0.00,CLR,CLR,0.00,WeatherDisplay:10.37,2013-10-01 01:50:00,
2013-09-30 19:55:00,50.8,39.8,29.84,SE,124,0.0,0.0,66,0.00,CLR,CLR,0.00,WeatherDisplay:10.37,2013-10-01 01:55:00,
2013-09-30 20:00:00,50.4,40.2,29.85,ESE,104,0.0,0.0,68,0.00,CLR,CLR,0.00,WeatherDisplay:10.37,2013-10-01 02:00:00,
2013-09-30 20:05:00,49.9,40.5,29.85,East,98,0.0,3.0,70,0.00,CLR,CLR,0.00,WeatherDisplay:10.37,2013-10-01 02:05:00,
2013-09-30 20:10:00,49.6,40.2,29.85,ESE,111,0.0,4.0,70,0.00,CLR,CLR,0.00,WeatherDisplay:10.37,2013-10-01 02:10:00,
2013-09-30 20:15:00,49.7,39.9,29.85,ESE,118,0.0,0.0,69,0.00,CLR,CLR,0.00,WeatherDisplay:10.37,2013-10-01 02:15:00,
2013-09-30 20:20:00,49.7,39.9,29.85,ESE,115,0.0,0.0,69,0.00,CLR,CLR,0.00,WeatherDisplay:10.37,2013-10-01 02:20:00,
2013-09-30 20:25:00,49.7,39.9,29.85,ESE,108,0.0,6.0,69,0.00,CLR,CLR,0.00,WeatherDisplay:10.37,2013-10-01 02:25:00,
2013-09-30 20:30:00,50.1,39.6,29.86,ESE,106,0.0,0.0,67,0.00,CLR,CLR,0.00,WeatherDisplay:10.37,2013-10-01 02:30:00,
2013-09-30 20:35:00,50.3,39.0,29.86,ESE,109,0.0,0.0,65,0.00,CLR,CLR,0.00,WeatherDisplay:10.37,2013-10-01 02:35:00,
2013-09-30 20:40:00,50.1,38.8,29.86,ESE,118,0.0,0.0,65,0.00,CLR,CLR,0.00,WeatherDisplay:10.37,2013-10-01 02:40:00,
2013-09-30 20:45:00,49.7,39.2,29.86,SE,130,0.0,0.0,67,0.00,CLR,CLR,0.00,WeatherDisplay:10.37,2013-10-01 02:45:00,
2013-09-30 20:50:00,48.8,39.1,29.86,SE,133,0.0,0.0,69,0.00,CLR,CLR,0.00,WeatherDisplay:10.37,2013-10-01 02:50:00,
2013-09-30 20:55:00,48.3,38.6,29.87,SE,134,0.0,0.0,69,0.00,CLR,CLR,0.00,WeatherDisplay:10.37,2013-10-01 02:55:00,
2013-09-30 21:00:00,48.2,38.5,29.87,SE,134,0.0,2.0,69,0.00,CLR,CLR,0.00,WeatherDisplay:10.37,2013-10-01 03:00:00,
2013-09-30 21:05:00,48.5,38.5,29.87,SE,126,0.0,4.0,68,0.00,CLR,CLR,0.00,WeatherDisplay:10.37,2013-10-01 03:05:00,
2013-09-30 21:10:00,48.8,38.7,29.87,ESE,107,0.0,0.0,68,0.00,CLR,CLR,0.00,WeatherDisplay:10.37,2013-10-01 03:10:00,
2013-09-30 21:15:00,48.5,38.0,29.88,ESE,103,0.0,0.0,67,0.00,CLR,CLR,0.00,WeatherDisplay:10.37,2013-10-01 03:15:00,
2013-09-30 21:20:00,48.4,38.0,29.88,ESE,108,0.0,0.0,67,0.00,CLR,CLR,0.00,WeatherDisplay:10.37,2013-10-01 03:20:00,
2013-09-30 21:25:00,48.4,38.0,29.88,ESE,115,1.0,4.0,67,0.00,CLR,CLR,0.00,WeatherDisplay:10.37,2013-10-01 03:25:00,
2013-09-30 21:30:00,48.9,38.0,29.88,ESE,122,0.0,5.0,66,0.00,CLR,CLR,0.00,WeatherDisplay:10.37,2013-10-01 03:30:00,
2013-09-30 21:35:00,49.0,38.1,29.87,ESE,121,2.0,5.0,66,0.00,CLR,CLR,0.00,WeatherDisplay:10.37,2013-10-01 03:35:00,
2013-09-30 21:40:00,48.6,37.8,29.88,ESE,120,1.0,4.0,66,0.00,CLR,CLR,0.00,WeatherDisplay:10.37,2013-10-01 03:40:00,
2013-09-30 21:45:00,48.4,37.6,29.88,SE,131,0.0,5.0,66,0.00,CLR,CLR,0.00,WeatherDisplay:10.37,2013-10-01 03:45:00,
2013-09-30 21:50:00,48.6,37.7,29.88,SE,127,0.0,3.0,66,0.00,CLR,CLR,0.00,WeatherDisplay:10.37,2013-10-01 03:50:00,
2013-09-30 21:55:00,48.6,37.7,29.88,ESE,117,0.0,2.0,66,0.00,CLR,CLR,0.00,WeatherDisplay:10.37,2013-10-01 03:55:00,
2013-09-30 22:00:00,48.5,37.7,29.89,ESE,112,1.0,5.0,66,0.00,CLR,CLR,0.00,WeatherDisplay:10.37,2013-10-01 04:00:00,
2013-09-30 22:05:00,48.4,37.6,29.88,ESE,109,0.0,3.0,66,0.00,CLR,CLR,0.00,WeatherDisplay:10.37,2013-10-01 04:05:00,
2013-09-30 22:10:00,48.1,37.3,29.88,ESE,112,0.0,0.0,66,0.00,CLR,CLR,0.00,WeatherDisplay:10.37,2013-10-01 04:10:00,
2013-09-30 22:15:00,48.1,36.9,29.88,ESE,119,0.0,3.0,65,0.00,CLR,CLR,0.00,WeatherDisplay:10.37,2013-10-01 04:15:00,
2013-09-30 22:20:00,48.1,37.3,29.88,ESE,117,0.0,5.0,66,0.00,CLR,CLR,0.00,WeatherDisplay:10.37,2013-10-01 04:20:00,
2013-09-30 22:25:00,48.0,37.1,29.88,ESE,105,0.0,5.0,66,0.00,CLR,CLR,0.00,WeatherDisplay:10.37,2013-10-01 04:25:00,
2013-09-30 22:30:00,47.8,37.4,29.88,ESE,115,3.0,7.0,67,0.00,CLR,CLR,0.00,WeatherDisplay:10.37,2013-10-01 04:30:00,
2013-09-30 22:40:00,48.1,37.3,29.88,ESE,117,2.0,7.0,66,0.00,CLR,CLR,0.00,WeatherDisplay:10.37,2013-10-01 04:40:00,
2013-09-30 22:50:00,47.6,36.8,29.88,SE,132,1.0,5.0,66,0.00,CLR,CLR,0.00,WeatherDisplay:10.37,2013-10-01 04:50:00,
2013-09-30 22:55:00,47.4,36.6,29.88,SE,125,0.0,0.0,66,0.00,CLR,CLR,0.00,WeatherDisplay:10.37,2013-10-01 04:55:00,
2013-09-30 23:00:00,46.9,36.5,29.88,ESE,118,0.0,0.0,67,0.00,CLR,CLR,0.00,WeatherDisplay:10.37,2013-10-01 05:00:00,
2013-09-30 23:05:00,46.8,36.1,29.88,ESE,118,0.0,5.0,66,0.00,CLR,CLR,0.00,WeatherDisplay:10.37,2013-10-01 05:05:00,
2013-09-30 23:10:00,46.9,36.5,29.88,ESE,121,1.0,6.0,67,0.00,CLR,CLR,0.00,WeatherDisplay:10.37,2013-10-01 05:10:00,
2013-09-30 23:15:00,47.0,36.6,29.87,ESE,117,1.0,7.0,67,0.00,CLR,CLR,0.00,WeatherDisplay:10.37,2013-10-01 05:15:00,
2013-09-30 23:20:00,46.9,36.5,29.88,ESE,117,1.0,6.0,67,0.00,CLR,CLR,0.00,WeatherDisplay:10.37,2013-10-01 05:20:00,
2013-09-30 23:25:00,46.7,36.3,29.88,ESE,121,0.0,3.0,67,0.00,CLR,CLR,0.00,WeatherDisplay:10.37,2013-10-01 05:25:00,
2013-09-30 23:30:00,46.5,36.5,29.88,ESE,121,2.0,5.0,68,0.00,CLR,CLR,0.00,WeatherDisplay:10.37,2013-10-01 05:30:00,
2013-09-30 23:35:00,46.4,36.4,29.88,ESE,117,1.0,4.0,68,0.00,CLR,CLR,0.00,WeatherDisplay:10.37,2013-10-01 05:35:00,
2013-09-30 23:40:00,45.9,36.3,29.87,ESE,120,2.0,5.0,69,0.00,CLR,CLR,0.00,WeatherDisplay:10.37,2013-10-01 05:40:00,
2013-09-30 23:45:00,46.0,36.4,29.88,SE,126,3.0,6.0,69,0.00,CLR,CLR,0.00,WeatherDisplay:10.37,2013-10-01 05:45:00,
2013-09-30 23:50:00,46.3,36.3,29.88,SE,128,1.0,4.0,68,0.00,CLR,CLR,0.00,WeatherDisplay:10.37,2013-10-01 05:50:00,
2013-09-30 23:59:00,46.1,36.1,29.87,ESE,122,0.0,5.0,68,0.00,CLR,CLR,0.00,WeatherDisplay:10.37,2013-10-01 05:59:00,